Latest Weather Observations for Point Perpendicular

IDN60801

Issued at 7:06 am EDT Tuesday 3 March 2015 (issued every 30 minutes, with the page automatically refreshed every 10 minutes)

About weather observations | Map of weather stations | Latest weather observations for NSW | Other Formats
Station Details ID: 068151 Name: POINT PERPENDICULAR AWS Lat: -35.09 Lon: 150.80 Height: 85.0 m
Data from the previous 72 hours. | See also: Recent months at Point Perpendicular
Date/Time
EDT
Temp
°C
App
Temp
°C
Dew
Point
Rel
Hum
%
Delta-T
°C
Wind Press
QNH
hPa
Press
MSL
hPa
Rain
since 9 am
mm
Dir
 
Spd
km/h
Gust
km/h
Spd
kts
Gust
kts
03/07:00am 16.3 16.5 14.3 88 1.1 NW 6 9 3 5 1014.4 1014.1 0.0
03/06:30am 16.7 16.9 14.7 88 1.2 NW 7 9 4 5 1014.4 1014.1 0.0
03/06:00am 16.4 16.4 14.1 86 1.3 NNW 7 9 4 5 1014.2 1013.9 0.0
03/05:30am 16.3 16.4 14.5 89 1.0 NNW 7 9 4 5 1014.2 1013.9 0.0
03/05:00am 16.8 17.2 14.8 88 1.2 NNW 6 7 3 4 1014.4 1014.1 0.0
03/04:30am 17.4 16.9 13.7 79 2.1 NNW 9 11 5 6 1014.7 1014.4 0.0
03/04:00am 18.1 17.5 13.6 75 2.6 N 9 11 5 6 1014.6 1014.3 0.0
03/03:30am 18.6 18.0 14.5 77 2.4 N 11 13 6 7 1014.8 1014.5 0.0
03/03:00am 18.5 18.0 14.8 79 2.2 N 11 13 6 7 1015.3 1015.0 0.0
03/02:30am 18.7 18.2 14.8 78 2.3 N 11 15 6 8 1015.6 1015.3 0.0
03/02:00am 18.7 18.6 15.0 79 2.2 N 9 13 5 7 1016.1 1015.8 0.0
03/01:30am 18.9 18.7 15.6 81 2.0 N 11 13 6 7 1016.6 1016.3 0.0
03/01:00am 18.2 18.2 15.3 83 1.7 N 9 11 5 6 1017.1 1016.8 0.0
03/12:30am 19.2 19.8 15.9 81 2.0 N 7 11 4 6 1017.6 1017.3 0.0
03/12:00am 19.9 20.2 14.9 73 2.9 NNW 7 11 4 6 1017.7 1017.4 0.0
 
Date/Time
EDT
Temp
°C
App
Temp
°C
Dew
Point
Rel
Hum
%
Delta-T
°C
Wind Press
QNH
hPa
Press
MSL
hPa
Rain
since 9 am
mm
Dir
 
Spd
km/h
Gust
km/h
Spd
kts
Gust
kts
02/11:30pm 20.2 18.7 14.3 69 3.4 NNE 15 22 8 12 1017.5 1017.2 0.0
02/11:00pm 19.9 19.2 14.3 70 3.3 NNE 11 17 6 9 1017.9 1017.6 0.0
02/10:30pm 20.3 19.2 14.4 69 3.4 NNE 13 20 7 11 1017.8 1017.5 0.0
02/10:00pm 19.9 18.3 14.0 69 3.4 NNE 15 22 8 12 1017.7 1017.4 0.0
02/09:30pm 20.1 19.0 14.2 69 3.4 NE 13 20 7 11 1017.7 1017.4 0.0
02/09:00pm 20.1 18.2 14.2 69 3.4 NE 17 26 9 14 1017.3 1017.0 0.0
02/08:30pm 19.8 18.7 14.2 70 3.3 NNE 13 20 7 11 1017.3 1017.0 0.0
02/08:00pm 19.8 19.7 15.0 74 2.8 NE 9 11 5 6 1017.3 1017.0 0.0
02/07:30pm 19.4 21.2 15.5 78 2.3 CALM 0 6 0 3 1017.3 1017.0 0.0
02/07:00pm 20.1 21.1 16.3 79 2.3 SE 6 9 3 5 1017.2 1016.9 0.0
02/06:30pm 20.8 22.0 16.8 78 2.4 SSE 6 9 3 5 1017.2 1016.9 0.0
02/06:00pm 20.0 20.8 15.8 77 2.5 SSE 6 9 3 5 1017.3 1017.0 0.0
02/05:30pm 20.5 21.3 15.9 75 2.8 SSE 6 9 3 5 1017.2 1016.9 0.0
02/05:00pm 20.5 20.7 15.7 74 2.9 S 9 13 5 7 1017.3 1017.0 0.0
02/04:30pm 20.5 20.2 15.5 73 3.0 SSE 11 13 6 7 1017.1 1016.8 0.0
02/04:00pm 20.5 19.8 15.3 72 3.1 S 13 17 7 9 1017.3 1017.0 0.0
02/03:30pm 20.1 19.1 14.7 71 3.2 S 13 17 7 9 1017.7 1017.4 0.0
02/03:00pm 19.8 18.3 14.2 70 3.2 S 15 20 8 11 1018.0 1017.7 0.0
02/02:30pm 20.5 18.8 14.6 69 3.5 SSE 17 24 9 13 1018.1 1017.8 0.0
02/02:00pm 19.9 18.2 13.6 67 3.6 S 15 22 8 12 1018.6 1018.3 0.0
02/01:30pm 19.7 18.0 13.6 68 3.5 SSW 15 24 8 13 1018.8 1018.5 0.0
02/01:00pm 19.5 16.9 13.2 67 3.6 SSW 19 26 10 14 1019.1 1018.8 0.0
02/12:30pm 19.3 16.6 12.8 66 3.7 SSW 19 26 10 14 1019.5 1019.2 0.0
02/12:00pm 19.2 16.4 13.2 68 3.4 SSW 20 30 11 16 1019.7 1019.4 0.0
02/11:30am 19.1 16.1 12.4 65 3.8 SSW 20 28 11 15 1020.0 1019.8 0.0
02/11:00am 18.6 15.6 12.1 66 3.6 SSW 19 26 10 14 1019.9 1019.7 0.0
02/10:30am 18.5 15.5 12.0 66 3.6 SSW 19 28 10 15 1019.7 1019.4 0.0
02/10:00am 18.3 15.2 11.6 65 3.7 SSW 19 30 10 16 1019.9 1019.7 0.0
02/09:30am 18.0 14.6 11.3 65 3.7 SSW 20 30 11 16 1019.5 1019.2 0.0
02/09:00am 17.8 15.1 11.6 67 3.4 SW 17 28 9 15 1019.5 1019.2 8.4
02/08:30am 17.4 14.6 11.4 68 3.3 SW 17 26 9 14 1019.4 1019.1 8.4
02/08:00am 17.0 14.6 11.3 69 3.1 SW 15 20 8 11 1019.4 1019.1 8.4
02/07:30am 16.6 14.5 11.1 70 3.0 SW 13 20 7 11 1019.3 1019.0 8.4
02/07:00am 16.6 14.6 11.5 72 2.8 SW 13 22 7 12 1018.9 1018.6 8.4
02/06:30am 16.9 14.5 11.4 70 3.0 SW 15 24 8 13 1018.4 1018.1 8.4
02/06:00am 17.2 15.3 11.9 71 2.9 SW 13 22 7 12 1017.6 1017.3 8.4
02/05:30am 16.8 13.7 12.1 74 2.6 SSW 20 35 11 19 1017.5 1017.2 8.4
02/05:00am 17.1 14.6 12.4 74 2.6 SW 17 28 9 15 1017.4 1017.1 8.4
02/04:30am 18.3 15.1 13.2 72 2.9 SSW 22 32 12 17 1016.9 1016.6 8.4
02/04:00am 18.4 15.7 12.8 70 3.1 SSW 19 26 10 14 1016.6 1016.3 8.4
02/03:30am 18.5 15.9 13.1 71 3.1 SSW 19 30 10 16 1017.2 1016.9 8.4
02/03:00am 18.6 15.6 12.4 67 3.5 SSW 20 32 11 17 1017.1 1016.8 8.4
02/02:30am 18.6 15.6 12.6 68 3.4 SSW 20 30 11 16 1017.0 1016.7 8.4
02/02:00am 18.7 15.4 12.9 69 3.3 SSW 22 33 12 18 1017.0 1016.7 8.4
02/01:30am 18.8 15.2 11.9 64 3.8 S 22 39 12 21 1017.1 1016.8 8.4
02/01:00am 18.9 14.3 11.2 61 4.2 S 26 43 14 23 1017.1 1016.8 8.4
02/12:30am 19.0 14.3 10.8 59 4.5 S 26 39 14 21 1016.9 1016.6 8.4
02/12:00am 19.0 15.4 12.0 64 3.9 S 22 39 12 21 1016.5 1016.2 8.4
 
Date/Time
EDT
Temp
°C
App
Temp
°C
Dew
Point
Rel
Hum
%
Delta-T
°C
Wind Press
QNH
hPa
Press
MSL
hPa
Rain
since 9 am
mm
Dir
 
Spd
km/h
Gust
km/h
Spd
kts
Gust
kts
01/11:30pm 19.2 14.2 12.2 64 3.9 S 30 48 16 26 1016.3 1016.0 8.4
01/11:01pm 19.5 13.6 12.5 64 3.9 S 35 54 19 29 1016.3 1016.0 8.4
01/11:00pm 19.5 13.3 12.5 64 3.9 S 37 54 20 29 1016.3 1016.0 8.4
01/10:30pm 19.6 15.1 12.6 64 3.9 S 28 46 15 25 1016.2 1015.9 8.4
01/10:04pm 19.7 14.8 12.5 63 4.1 S 30 50 16 27 1016.0 1015.7 8.4
01/10:00pm 19.8 15.6 12.3 62 4.2 S 26 44 14 24 1015.8 1015.5 8.4
01/09:30pm 20.0 14.5 12.5 62 4.2 S 33 54 18 29 1015.1 1014.8 8.4
01/09:00pm 19.9 15.3 13.6 67 3.6 S 30 48 16 26 1014.2 1013.9 8.4
01/08:30pm 20.0 14.5 13.5 66 3.7 S 35 59 19 32 1013.5 1013.2 8.4
01/08:00pm 20.0 15.7 14.4 70 3.3 S 30 48 16 26 1012.9 1012.6 8.4
01/07:30pm 19.9 14.6 14.3 70 3.3 S 35 57 19 31 1012.1 1011.8 8.4
01/07:14pm 19.9 15.4 14.9 73 2.9 S 32 50 17 27 1012.3 1012.0 8.4
01/07:00pm 19.9 16.5 13.8 68 3.5 S 24 41 13 22 1011.7 1011.4 8.4
01/06:36pm 19.8 16.2 15.2 75 2.7 S 28 46 15 25 1011.7 1011.4 8.4
01/06:30pm 19.8 16.9 15.2 75 2.7 S 24 41 13 22 1011.3 1011.0 8.4
01/06:10pm 19.7 16.4 16.0 79 2.2 S 28 46 15 25 1010.8 1010.6 8.4
01/06:00pm 19.6 16.5 15.5 77 2.4 S 26 44 14 24 1010.7 1010.5 8.4
01/05:30pm 19.7 15.3 15.1 75 2.7 S 32 52 17 28 1009.7 1009.5 8.4
01/05:00pm 19.4 14.9 15.5 78 2.3 S 33 59 18 32 1008.9 1008.6 8.4
01/04:30pm 19.3 15.6 17.4 89 1.2 S 33 54 18 29 1008.4 1008.1 8.4
01/04:00pm 19.6 16.0 17.7 89 1.2 S 33 54 18 29 1008.1 1007.8 8.4
01/03:34pm 20.3 17.5 19.5 95 0.5 S 33 52 18 28 1006.9 1006.6 8.4
01/03:30pm 20.2 18.0 19.5 96 0.4 S 30 46 16 25 1006.9 1006.6 8.4
01/03:17pm 19.7 16.8 19.2 97 0.3 S 33 52 18 28 1007.6 1007.3 8.4
01/03:00pm 19.5 16.5 19.0 97 0.3 S 33 50 18 27 1007.2 1006.9 8.0
01/02:55pm 19.6 16.5 18.9 96 0.4 SSW 33 59 18 32 1007.7 1007.4 5.8
01/02:30pm 21.1 18.7 19.9 93 0.8 S 32 59 17 32 1005.7 1005.4 0.2
01/02:24pm 21.3 19.7 20.1 93 0.8 S 28 50 15 27 1005.7 1005.4 0.2
01/02:00pm 21.5 20.7 20.8 96 0.5 SSW 26 35 14 19 1005.8 1005.5 0.0
01/01:30pm 21.5 19.6 20.1 92 0.9 SSW 30 44 16 24 1006.4 1006.1 0.0
01/01:00pm 21.7 20.2 20.2 91 1.0 SSW 28 43 15 23 1006.3 1006.0 0.0
01/12:30pm 21.5 21.0 19.1 86 1.5 SW 20 32 11 17 1005.4 1005.1 0.0
01/12:24pm 22.3 22.5 18.5 79 2.4 WNW 15 26 8 14 1005.3 1005.0 0.0
01/12:00pm 27.6 26.9 18.6 58 5.8 NNE 20 26 11 14 1005.0 1004.7 0.0
01/11:30am 29.4 29.7 20.3 58 6.0 NNE 19 24 10 13 1005.1 1004.8 0.0
01/11:00am 29.3 29.6 18.7 52 6.9 NNE 15 20 8 11 1005.4 1005.1 0.0
01/10:30am 29.3 30.5 19.0 53 6.7 N 11 15 6 8 1005.5 1005.2 0.0
01/10:00am 28.3 29.8 18.1 54 6.5 N 7 11 4 6 1005.7 1005.4 0.0
01/09:30am 26.4 27.6 19.8 67 4.3 NNE 13 20 7 11 1005.7 1005.4 0.0
01/09:00am 25.1 26.5 20.4 75 3.1 N 13 20 7 11 1005.3 1005.0 0.0
01/08:30am 24.1 24.7 20.2 79 2.5 N 17 24 9 13 1005.1 1004.8 0.0
01/08:00am 22.9 24.2 20.8 88 1.4 N 15 22 8 12 1004.9 1004.6 0.0
01/07:30am 22.2 23.0 20.7 91 1.0 N 17 26 9 14 1004.7 1004.4 0.0
01/07:00am 21.9 21.5 20.2 90 1.1 N 22 28 12 15 1004.1 1003.8 0.0
01/06:30am 21.8 21.9 19.9 89 1.2 N 19 26 10 14 1004.1 1003.8 0.0
01/06:00am 22.1 21.1 19.6 86 1.6 N 24 32 13 17 1003.8 1003.5 0.0
01/05:30am 22.1 21.3 20.0 88 1.4 N 24 32 13 17 1003.7 1003.4 0.0
01/05:00am 22.1 21.3 20.0 88 1.4 N 24 35 13 19 1003.6 1003.3 0.0
01/04:30am 22.0 21.1 19.9 88 1.4 NNE 24 33 13 18 1003.5 1003.2 0.0
01/04:00am 21.9 20.8 20.2 90 1.1 NNE 26 39 14 21 1003.8 1003.5 0.0
01/03:30am 22.0 20.8 20.1 89 1.2 N 26 39 14 21 1004.1 1003.8 0.0
01/03:00am 22.0 20.4 20.1 89 1.2 NNE 28 39 15 21 1004.3 1004.0 0.0
01/02:30am 21.7 20.1 20.0 90 1.1 NNE 28 39 15 21 1004.5 1004.2 0.0
01/02:00am 21.9 21.1 20.0 89 1.2 N 24 33 13 18 1005.0 1004.7 0.0
01/01:30am 21.9 20.5 20.4 91 1.0 NNE 28 39 15 21 1005.4 1005.1 0.0
01/01:00am 22.1 20.8 20.7 92 0.9 NNE 28 39 15 21 1005.9 1005.6 0.0
01/12:30am 22.1 20.9 20.9 93 0.8 NNE 28 43 15 23 1006.1 1005.8 0.0
01/12:00am 22.3 20.8 20.9 92 0.9 NNE 30 44 16 24 1006.6 1006.3 0.0
 
Date/Time
EDT
Temp
°C
App
Temp
°C
Dew
Point
Rel
Hum
%
Delta-T
°C
Wind Press
QNH
hPa
Press
MSL
hPa
Rain
since 9 am
mm
Dir
 
Spd
km/h
Gust
km/h
Spd
kts
Gust
kts
28/11:30pm 22.5 21.0 21.0 91 1.0 N 30 44 16 24 1006.8 1006.5 0.0
28/11:00pm 22.6 20.4 21.4 93 0.8 NNE 35 50 19 27 1006.9 1006.6 0.0
28/10:30pm 22.5 21.8 21.8 96 0.5 NNE 28 46 15 25 1007.1 1006.8 0.0
28/10:00pm 22.4 21.0 21.9 97 0.3 NNE 32 48 17 26 1007.4 1007.1 0.0
28/09:30pm 22.4 21.5 22.1 98 0.2 NNE 30 44 16 24 1007.5 1007.2 0.0
28/09:00pm 22.4 21.3 21.7 96 0.5 NNE 30 41 16 22 1007.5 1007.2 0.0
28/08:30pm 22.4 20.7 21.4 94 0.7 NNE 32 44 17 24 1007.2 1006.9 0.0
28/08:00pm 22.5 21.1 21.1 92 0.9 NNE 30 43 16 23 1007.1 1006.8 0.0
28/07:30pm 22.5 21.0 21.0 91 1.0 NNE 30 46 16 25 1006.8 1006.5 0.0
28/07:00pm 23.0 21.5 20.9 88 1.4 NNE 30 44 16 24 1006.5 1006.2 0.0
28/06:43pm 23.3 21.9 21.2 88 1.4 NNE 30 48 16 26 1006.4 1006.1 0.0
28/06:30pm 23.4 21.3 20.9 86 1.6 NNE 33 44 18 24 1006.3 1006.0 0.0
28/06:02pm 23.8 22.3 20.9 84 1.9 NNE 30 48 16 26 1006.5 1006.2 0.0
28/06:00pm 23.9 22.0 21.0 84 1.9 NNE 32 46 17 25 1006.6 1006.3 0.0
28/05:30pm 24.4 22.5 20.9 81 2.3 NNE 32 48 17 26 1006.8 1006.5 0.0
28/05:22pm 24.6 23.1 20.9 80 2.4 NNE 30 48 16 26 1007.0 1006.7 0.0
28/05:00pm 24.9 23.1 21.2 80 2.5 NNE 32 44 17 24 1007.0 1006.7 0.0
28/04:30pm 25.2 23.3 20.2 74 3.3 NNE 30 46 16 25 1007.1 1006.8 0.0
28/04:00pm 25.2 23.2 20.0 73 3.4 NNE 30 43 16 23 1007.1 1006.8 0.0
28/03:30pm 25.3 22.9 19.0 68 4.0 NNE 30 43 16 23 1007.4 1007.1 0.0
28/03:00pm 25.1 22.6 19.7 72 3.5 NNE 32 43 17 23 1007.8 1007.5 0.0
28/02:30pm 25.6 23.3 19.3 68 4.1 NNE 30 41 16 22 1008.3 1008.0 0.0
28/02:00pm 25.0 22.4 19.4 71 3.6 NNE 32 43 17 23 1008.7 1008.4 0.0
28/01:30pm 24.1 22.9 20.0 78 2.7 NNE 26 39 14 21 1009.0 1008.7 0.0
28/01:00pm 23.3 21.9 19.7 80 2.3 NNE 26 39 14 21 1009.2 1008.9 0.0
28/12:30pm 23.5 21.7 19.6 79 2.5 NNE 28 41 15 22 1009.4 1009.1 0.0
28/12:00pm 23.6 21.9 18.9 75 3.0 NNE 26 33 14 18 1009.7 1009.4 0.0
28/11:30am 24.7 23.3 18.9 70 3.7 NNE 24 33 13 18 1010.3 1010.0 0.0
28/11:00am 23.0 22.2 19.2 79 2.4 NNE 22 30 12 16 1010.5 1010.2 0.0
28/10:30am 23.9 22.9 19.6 77 2.8 NNE 24 30 13 16 1010.6 1010.3 0.0
28/10:00am 23.2 23.4 20.2 83 1.9 N 19 30 10 16 1010.9 1010.6 0.0
28/09:30am 22.5 23.7 20.0 86 1.6 N 13 22 7 12 1010.8 1010.5 0.0
28/09:00am 21.9 23.7 20.4 91 1.0 NNE 11 17 6 9 1010.6 1010.3 0.0
28/08:30am 20.7 23.0 19.9 95 0.5 N 7 11 4 6 1010.8 1010.5 0.0
28/08:00am 20.4 22.8 20.1 98 0.2 N 7 9 4 5 1010.5 1010.2 0.0
28/07:30am 20.1 22.0 19.8 98 0.2 NNE 9 11 5 6 1010.3 1010.0 0.0

Other Formats:

Comma delimited format used in spreadsheet applications
http://www.bom.gov.au/fwo/IDN60801/IDN60801.95940.axf

JavaScript Object Notation format (JSON) in row-major order
http://www.bom.gov.au/fwo/IDN60801/IDN60801.95940.json